createdAt,value
2018-11-29T00:00:41.405Z,25.65
2018-11-29T00:03:17.178Z,25.70
2018-11-29T00:05:58.335Z,26.90
2018-11-29T00:08:34.164Z,27.00
2018-11-29T00:11:09.947Z,27.37
2018-11-29T00:13:45.218Z,26.62
2018-11-29T00:16:21.002Z,28.05
2018-11-29T00:18:56.679Z,25.40
2018-11-29T00:21:32.699Z,28.32
2018-11-29T00:24:12.602Z,25.88
2018-11-29T00:26:48.574Z,23.75
2018-11-29T00:29:24.438Z,28.62
2018-11-29T00:32:00.143Z,28.47
2018-11-29T00:34:36.063Z,26.05
2018-11-29T00:37:11.663Z,26.75
2018-11-29T00:39:47.471Z,23.18
2018-11-29T00:42:22.461Z,25.57
2018-11-29T01:03:33.663Z,23.10
2018-11-29T01:06:09.340Z,24.57
2018-11-29T01:08:45.166Z,22.93
2018-11-29T01:11:20.991Z,26.40
2018-11-29T01:13:56.902Z,23.67
2018-11-29T01:16:32.887Z,24.05
2018-11-29T01:19:08.841Z,22.73
2018-11-29T01:21:45.248Z,24.27
2018-11-29T01:24:20.845Z,22.48
2018-11-29T01:26:56.604Z,25.40
2018-11-29T01:29:32.504Z,22.95
2018-11-29T01:32:08.502Z,22.67
2018-11-29T01:34:44.219Z,24.12
2018-11-29T01:37:20.079Z,22.20
2018-11-29T01:39:55.831Z,23.62
2018-11-29T01:42:31.495Z,22.67
2018-11-29T01:45:07.411Z,23.95
2018-11-29T01:47:43.282Z,22.25
2018-11-29T01:50:20.095Z,21.97
2018-11-29T01:52:56.223Z,22.50
2018-11-29T01:55:31.990Z,23.12
2018-11-29T01:58:07.763Z,22.90
2018-11-29T02:00:43.676Z,24.98
2018-11-29T02:03:19.567Z,28.10
2018-11-29T02:05:55.703Z,23.77
2018-11-29T02:08:31.568Z,23.60
2018-11-29T02:11:07.279Z,22.17
2018-11-29T02:13:43.023Z,23.92
2018-11-29T02:16:18.675Z,22.07
2018-11-29T02:18:55.551Z,23.32
2018-11-29T02:21:32.186Z,23.27
2018-11-29T02:24:08.094Z,21.05
2018-11-29T02:26:44.916Z,25.15
2018-11-29T02:29:20.516Z,26.33
2018-11-29T02:31:56.439Z,22.90
2018-11-29T02:34:34.444Z,22.17
2018-11-29T02:37:10.453Z,24.80
2018-11-29T02:39:46.187Z,21.77
2018-11-29T02:42:23.088Z,23.18
2018-11-29T02:44:58.759Z,26.68
2018-11-29T02:47:34.613Z,26.77
2018-11-29T02:50:10.368Z,27.58
2018-11-29T02:52:46.523Z,27.42
2018-11-29T02:55:22.329Z,25.62
2018-11-29T02:57:58.254Z,26.70
2018-11-29T03:00:34.036Z,26.75
2018-11-29T03:03:09.843Z,24.90
2018-11-29T03:05:45.836Z,26.82
2018-11-29T03:08:23.532Z,27.67
2018-11-29T03:10:59.249Z,23.22
2018-11-29T03:15:59.862Z,21.80
2018-11-29T03:18:35.649Z,26.20
2018-11-29T03:21:11.356Z,24.92
2018-11-29T03:23:47.143Z,25.88
2018-11-29T03:26:23.252Z,23.70
2018-11-29T03:28:58.851Z,25.95
2018-11-29T03:31:34.687Z,24.60
2018-11-29T03:34:10.397Z,26.95
2018-11-29T03:36:47.808Z,25.77
2018-11-29T03:39:24.003Z,22.85
2018-11-29T03:41:59.966Z,26.42
2018-11-29T03:44:35.819Z,20.88
2018-11-29T03:47:11.443Z,23.32
2018-11-29T03:49:47.446Z,22.37
2018-11-29T03:52:23.235Z,19.82
2018-11-29T03:54:58.935Z,20.68
2018-11-29T03:57:34.535Z,18.62
2018-11-29T04:00:15.792Z,19.80
2018-11-29T04:02:52.002Z,20.20
2018-11-29T04:05:27.777Z,17.77
2018-11-29T04:08:03.622Z,20.40
2018-11-29T04:10:40.211Z,18.27
2018-11-29T04:13:15.971Z,18.40
2018-11-29T04:15:51.879Z,19.07
2018-11-29T04:18:27.455Z,17.75
2018-11-29T04:21:03.458Z,18.73
2018-11-29T04:23:39.233Z,17.80
2018-11-29T04:26:14.943Z,16.95
2018-11-29T04:28:56.300Z,18.20
2018-11-29T04:31:32.462Z,19.20
2018-11-29T04:34:09.006Z,20.37
2018-11-29T04:36:44.903Z,18.90
2018-11-29T04:39:20.646Z,18.90
2018-11-29T04:41:56.339Z,22.22
2018-11-29T04:44:32.093Z,24.18
2018-11-29T04:47:08.024Z,18.87
2018-11-29T04:49:43.740Z,18.57
2018-11-29T04:52:19.548Z,19.00
2018-11-29T04:54:56.733Z,21.15
2018-11-29T04:57:33.261Z,22.45
2018-11-29T05:00:14.383Z,21.52
2018-11-29T05:02:50.919Z,20.60
2018-11-29T05:05:27.828Z,18.75
2018-11-29T05:08:03.488Z,19.77
2018-11-29T05:10:39.429Z,19.45
2018-11-29T05:13:15.128Z,18.48
2018-11-29T05:15:51.998Z,19.23
2018-11-29T05:18:28.119Z,18.35
2018-11-29T05:21:04.603Z,19.00
2018-11-29T05:23:40.789Z,17.55
2018-11-29T05:26:17.418Z,15.60
2018-11-29T05:28:53.214Z,14.73
2018-11-29T05:31:29.024Z,15.30
2018-11-29T05:34:05.304Z,13.93
2018-11-29T05:36:41.545Z,13.50
2018-11-29T05:39:17.324Z,13.43
2018-11-29T05:41:53.161Z,14.20
2018-11-29T05:44:29.918Z,13.58
2018-11-29T05:47:06.116Z,16.15
2018-11-29T05:49:42.657Z,14.20
2018-11-29T05:52:19.499Z,13.78
2018-11-29T05:54:55.367Z,14.87
2018-11-29T05:57:32.532Z,13.65
2018-11-29T06:00:13.490Z,14.20
2018-11-29T06:02:50.036Z,14.40
2018-11-29T06:05:26.679Z,14.35
2018-11-29T06:08:05.791Z,14.65
2018-11-29T06:10:42.375Z,15.93
2018-11-29T06:13:18.007Z,15.20
2018-11-29T06:15:53.846Z,16.07
2018-11-29T06:18:29.762Z,19.32
2018-11-29T06:21:05.917Z,18.40
2018-11-29T06:23:42.429Z,17.77
2018-11-29T06:26:18.186Z,18.40
2018-11-29T06:28:54.179Z,19.77
2018-11-29T06:31:29.910Z,18.73
2018-11-29T06:34:06.422Z,22.07
2018-11-29T06:36:42.371Z,20.60
2018-11-29T06:39:18.452Z,18.60
2018-11-29T06:41:54.919Z,19.23
2018-11-29T06:44:30.646Z,18.07
2018-11-29T06:47:06.404Z,16.73
2018-11-29T06:49:43.403Z,14.18
2018-11-29T06:52:19.114Z,13.38
2018-11-29T06:55:00.208Z,14.43
2018-11-29T06:57:36.980Z,12.05
2018-11-29T07:00:16.821Z,14.75
2018-11-29T07:02:53.417Z,9.63
2018-11-29T07:05:29.099Z,10.88
2018-11-29T07:08:05.352Z,9.20
2018-11-29T07:10:41.928Z,8.75
2018-11-29T07:13:17.890Z,9.55
2018-11-29T07:15:55.801Z,9.70
2018-11-29T07:18:32.401Z,10.40
2018-11-29T07:21:19.707Z,7.40
2018-11-29T07:23:55.934Z,10.35
2018-11-29T07:26:31.739Z,10.28
2018-11-29T07:29:07.459Z,6.12
2018-11-29T07:31:50.747Z,8.30
2018-11-29T07:34:30.085Z,6.67
2018-11-29T07:37:05.996Z,5.90
2018-11-29T07:39:42.950Z,6.60
2018-11-29T07:42:25.023Z,5.20
2018-11-29T07:45:01.327Z,6.03
2018-11-29T07:47:36.906Z,6.30
2018-11-29T07:50:24.609Z,5.37
2018-11-29T07:53:01.248Z,7.80
2018-11-29T07:55:37.050Z,5.40
2018-11-29T07:58:12.927Z,5.78
2018-11-29T08:00:48.744Z,7.45
2018-11-29T08:03:25.431Z,5.50
2018-11-29T08:06:00.975Z,10.20
2018-11-29T08:08:37.103Z,5.75
2018-11-29T08:11:12.891Z,6.20
2018-11-29T08:13:48.536Z,6.75
2018-11-29T08:16:24.727Z,6.35
2018-11-29T08:19:01.274Z,4.85
2018-11-29T08:21:40.086Z,8.05
2018-11-29T08:24:18.692Z,4.60
2018-11-29T08:26:54.723Z,5.17
2018-11-29T08:29:35.077Z,3.92
2018-11-29T08:32:09.031Z,7.10
2018-11-29T08:34:44.782Z,6.92
2018-11-29T08:37:20.259Z,7.53
2018-11-29T08:39:55.939Z,6.17
2018-11-29T08:42:31.751Z,4.33
2018-11-29T08:45:09.355Z,6.22
2018-11-29T08:47:45.459Z,6.75
2018-11-29T08:50:21.124Z,6.35
2018-11-29T08:52:57.826Z,9.00
2018-11-29T08:55:33.822Z,6.30
2018-11-29T08:58:10.378Z,6.87
2018-11-29T09:00:46.190Z,6.83
2018-11-29T09:03:21.960Z,7.08
2018-11-29T09:06:03.151Z,5.55
2018-11-29T09:08:39.292Z,6.12
2018-11-29T09:11:16.058Z,6.60
2018-11-29T09:13:52.173Z,5.87
2018-11-29T09:16:29.543Z,4.53
2018-11-29T09:19:05.537Z,5.30
2018-11-29T09:21:47.750Z,5.22
2018-11-29T09:24:43.087Z,7.08
2018-11-29T09:27:31.315Z,6.70
2018-11-29T09:30:17.937Z,4.92
2018-11-29T09:32:54.510Z,6.05
2018-11-29T09:35:31.058Z,7.17
2018-11-29T09:38:06.823Z,5.37
2018-11-29T09:40:42.439Z,4.85
2018-11-29T09:43:18.454Z,7.97
2018-11-29T09:45:54.109Z,6.53
2018-11-29T09:48:32.899Z,5.83
2018-11-29T09:51:08.723Z,5.83
2018-11-29T09:53:47.399Z,7.92
2018-11-29T09:56:23.068Z,6.12
2018-11-29T09:58:59.729Z,6.70
2018-11-29T10:01:35.495Z,6.42
2018-11-29T10:04:11.320Z,5.42
2018-11-29T10:06:47.982Z,7.15
2018-11-29T10:09:23.733Z,5.97
2018-11-29T10:11:59.936Z,6.25
2018-11-29T10:14:39.498Z,6.42
2018-11-29T10:17:16.190Z,6.10
2018-11-29T10:19:52.038Z,5.83
2018-11-29T10:22:27.736Z,6.35
2018-11-29T10:25:05.931Z,6.03
2018-11-29T10:27:43.735Z,6.10
2018-11-29T10:30:23.800Z,6.62
2018-11-29T10:32:59.626Z,5.67
2018-11-29T10:35:38.624Z,3.70
2018-11-29T10:38:15.470Z,7.70
2018-11-29T10:41:00.722Z,5.58
2018-11-29T10:43:37.946Z,5.33
2018-11-29T10:46:15.832Z,6.47
2018-11-29T10:48:52.329Z,4.42
2018-11-29T10:51:29.155Z,5.53
2018-11-29T10:54:07.279Z,3.52
2018-11-29T10:56:44.064Z,4.40
2018-11-29T10:59:19.673Z,4.60
2018-11-29T11:02:06.600Z,3.72
2018-11-29T11:04:43.267Z,4.83
2018-11-29T11:07:23.631Z,3.98
2018-11-29T11:10:00.808Z,4.25
2018-11-29T11:12:36.930Z,4.58
2018-11-29T11:15:12.607Z,3.27
2018-11-29T11:17:48.393Z,4.92
2018-11-29T11:20:24.190Z,3.72
2018-11-29T11:23:00.035Z,5.20
2018-11-29T11:25:35.815Z,4.85
2018-11-29T11:28:11.788Z,4.60
2018-11-29T11:30:48.083Z,4.60
2018-11-29T11:33:25.463Z,5.72
2018-11-29T11:36:01.414Z,5.95
2018-11-29T11:38:39.511Z,4.33
2018-11-29T11:41:18.264Z,5.87
2018-11-29T11:43:54.962Z,5.22
2018-11-29T11:46:31.193Z,4.45
2018-11-29T11:49:09.196Z,6.80
2018-11-29T11:51:45.953Z,6.12
2018-11-29T11:54:21.526Z,5.85
2018-11-29T11:56:57.620Z,4.90
2018-11-29T11:59:35.659Z,5.95
2018-11-29T12:02:19.293Z,5.08
2018-11-29T12:04:56.479Z,5.03
2018-11-29T12:07:33.551Z,6.58
2018-11-29T12:10:12.461Z,6.87
2018-11-29T12:12:50.203Z,6.12
2018-11-29T12:15:36.470Z,4.10
2018-11-29T12:18:12.848Z,6.03
2018-11-29T12:20:49.014Z,6.83
2018-11-29T12:23:25.407Z,6.03
2018-11-29T12:26:01.413Z,7.55
2018-11-29T12:28:42.668Z,8.73
2018-11-29T12:31:18.843Z,5.30
2018-11-29T12:33:54.556Z,5.08
2018-11-29T12:36:34.891Z,6.08
2018-11-29T12:39:11.663Z,8.70
2018-11-29T12:41:47.458Z,8.23
2018-11-29T12:44:23.247Z,7.50
2018-11-29T12:46:59.466Z,7.08
2018-11-29T12:49:35.749Z,8.40
2018-11-29T12:52:14.615Z,12.58
2018-11-29T12:54:54.156Z,6.60
2018-11-29T12:57:30.072Z,6.70
2018-11-29T13:00:14.636Z,9.13
2018-11-29T13:02:56.780Z,6.22
2018-11-29T13:05:35.871Z,6.70
2018-11-29T13:08:12.466Z,8.70
2018-11-29T13:10:49.322Z,6.55
2018-11-29T13:13:27.564Z,7.67
2018-11-29T13:16:01.995Z,7.85
2018-11-29T13:18:38.737Z,9.73
2018-11-29T13:21:14.470Z,6.33
2018-11-29T13:23:51.546Z,6.80
2018-11-29T13:26:31.292Z,6.47
2018-11-29T13:29:08.866Z,7.45
2018-11-29T13:31:45.808Z,7.20
2018-11-29T13:34:21.151Z,6.60
2018-11-29T13:36:59.861Z,6.50
2018-11-29T13:39:36.640Z,8.23
2018-11-29T13:42:14.267Z,5.55
2018-11-29T13:44:51.312Z,6.30
2018-11-29T13:47:26.446Z,4.70
2018-11-29T13:50:02.172Z,4.35
2018-11-29T13:52:38.347Z,7.15
2018-11-29T13:55:15.763Z,5.08
2018-11-29T13:57:52.708Z,4.95
2018-11-29T14:00:35.020Z,5.90
2018-11-29T14:03:13.598Z,5.30
2018-11-29T14:05:57.756Z,5.40
2018-11-29T14:08:34.534Z,5.83
2018-11-29T14:11:13.323Z,5.00
2018-11-29T14:13:49.429Z,5.85
2018-11-29T14:16:29.393Z,7.28
2018-11-29T14:19:05.648Z,5.97
2018-11-29T14:21:42.501Z,5.10
2018-11-29T14:24:18.171Z,5.87
2018-11-29T14:26:54.951Z,6.83
2018-11-29T14:29:30.747Z,4.87
2018-11-29T14:32:09.831Z,5.85
2018-11-29T14:34:45.536Z,6.10
2018-11-29T14:37:23.527Z,6.78
2018-11-29T14:39:59.534Z,5.83
2018-11-29T14:42:36.032Z,7.37
2018-11-29T14:45:13.911Z,6.12
2018-11-29T14:47:55.531Z,6.35
2018-11-29T14:50:35.945Z,5.33
2018-11-29T14:53:24.443Z,8.13
2018-11-29T14:56:05.761Z,5.58
2018-11-29T14:58:43.298Z,6.22
2018-11-29T15:01:26.856Z,5.78
2018-11-29T15:04:14.043Z,5.40
2018-11-29T15:06:50.908Z,5.62
2018-11-29T15:09:27.938Z,5.72
2018-11-29T15:12:04.487Z,6.90
2018-11-29T15:14:40.119Z,5.92
2018-11-29T15:17:15.899Z,5.25
2018-11-29T15:19:54.897Z,5.67
2018-11-29T15:22:34.086Z,6.33
2018-11-29T15:25:15.430Z,4.83
2018-11-29T15:27:51.696Z,4.55
2018-11-29T15:30:27.649Z,5.30
2018-11-29T15:33:03.507Z,5.65
2018-11-29T15:35:39.405Z,5.25
2018-11-29T15:38:15.252Z,4.60
2018-11-29T15:40:51.291Z,5.37
2018-11-29T15:43:27.102Z,5.72
2018-11-29T15:46:02.952Z,4.12
2018-11-29T15:48:39.016Z,5.85
2018-11-29T15:51:15.113Z,4.85
2018-11-29T15:53:51.554Z,4.75
2018-11-29T15:56:28.703Z,5.80
2018-11-29T15:59:04.434Z,4.53
2018-11-29T16:01:43.319Z,4.80
2018-11-29T16:04:19.811Z,4.92
2018-11-29T16:06:58.017Z,9.23
2018-11-29T16:09:34.559Z,4.70
2018-11-29T16:12:10.419Z,5.35
2018-11-29T16:14:46.426Z,4.97
2018-11-29T16:17:22.061Z,4.10
2018-11-29T16:19:57.730Z,5.33
2018-11-29T16:22:33.675Z,4.33
2018-11-29T16:25:11.326Z,4.60
2018-11-29T16:27:47.112Z,4.10
2018-11-29T16:30:30.908Z,4.20
2018-11-29T16:33:09.542Z,4.12
2018-11-29T16:35:45.619Z,4.75
2018-11-29T16:38:22.479Z,4.12
2018-11-29T16:40:58.223Z,4.75
2018-11-29T16:43:33.987Z,6.72
2018-11-29T16:46:09.752Z,4.22
2018-11-29T16:48:45.774Z,4.35
2018-11-29T16:51:22.494Z,4.15
2018-11-29T16:53:59.370Z,4.67
2018-11-29T16:56:36.399Z,6.15
2018-11-29T16:59:12.234Z,5.62
2018-11-29T17:01:49.081Z,5.83
2018-11-29T17:04:24.753Z,5.47
2018-11-29T17:07:00.659Z,4.25
2018-11-29T17:09:39.487Z,4.50
2018-11-29T17:12:15.202Z,4.95
2018-11-29T17:14:53.895Z,4.30
2018-11-29T17:17:29.519Z,6.97
2018-11-29T17:20:08.124Z,5.35
2018-11-29T17:22:45.202Z,6.40
2018-11-29T17:25:24.357Z,4.25
2018-11-29T17:28:00.046Z,6.87
2018-11-29T17:30:36.797Z,4.37
2018-11-29T17:33:13.558Z,4.42
2018-11-29T17:35:49.738Z,4.95
2018-11-29T17:38:27.250Z,4.25
2018-11-29T17:41:07.032Z,4.60
2018-11-29T17:43:42.951Z,3.98
2018-11-29T17:46:19.511Z,3.37
2018-11-29T17:48:55.654Z,4.80
2018-11-29T17:51:31.085Z,4.17
2018-11-29T17:54:06.851Z,4.45
2018-11-29T17:56:42.982Z,4.22
2018-11-29T17:59:18.982Z,5.60
2018-11-29T18:01:55.371Z,7.17
2018-11-29T18:04:31.596Z,6.15
2018-11-29T18:07:07.481Z,4.45
2018-11-29T18:09:44.596Z,4.17
2018-11-29T18:12:21.104Z,3.45
2018-11-29T18:14:57.050Z,6.05
2018-11-29T18:17:32.687Z,4.60
2018-11-29T18:20:09.902Z,4.95
2018-11-29T18:22:49.611Z,5.65
2018-11-29T18:25:26.709Z,5.72
2018-11-29T18:28:03.178Z,5.10
2018-11-29T18:30:39.723Z,4.47
2018-11-29T18:33:15.546Z,5.00
2018-11-29T18:35:52.218Z,5.70
2018-11-29T18:38:28.350Z,5.70
2018-11-29T18:41:05.154Z,4.35
2018-11-29T18:43:42.511Z,4.37
2018-11-29T18:46:19.493Z,4.35
2018-11-29T18:48:55.321Z,4.42
2018-11-29T18:51:30.925Z,5.08
2018-11-29T18:54:06.895Z,6.00
2018-11-29T18:56:42.468Z,6.83
2018-11-29T18:59:18.751Z,9.30
2018-11-29T19:01:55.022Z,5.42
2018-11-29T19:04:30.844Z,4.20
2018-11-29T19:07:09.679Z,5.30
2018-11-29T19:09:45.483Z,4.83
2018-11-29T19:12:21.502Z,7.53
2018-11-29T19:14:58.177Z,5.35
2018-11-29T19:17:33.851Z,6.00
2018-11-29T19:20:12.244Z,6.00
2018-11-29T19:22:48.663Z,5.15
2018-11-29T19:26:48.843Z,6.00
2018-11-29T19:29:24.599Z,5.22
2018-11-29T19:32:01.445Z,4.97
2018-11-29T19:34:38.031Z,5.03
2018-11-29T19:37:13.834Z,5.50
2018-11-29T19:39:50.541Z,5.97
2018-11-29T19:42:26.265Z,4.70
2018-11-29T19:45:02.134Z,5.10
2018-11-29T19:47:38.063Z,5.12
2018-11-29T19:50:15.375Z,5.42
2018-11-29T19:52:53.176Z,6.70
2018-11-29T19:55:31.781Z,5.92
2018-11-29T19:58:08.240Z,5.25
2018-11-29T20:00:44.812Z,8.60
2018-11-29T20:03:20.992Z,7.25
2018-11-29T20:05:56.719Z,5.97
2018-11-29T20:08:32.614Z,6.20
2018-11-29T20:11:08.215Z,6.28
2018-11-29T20:13:43.919Z,7.10
2018-11-29T20:16:19.795Z,8.03
2018-11-29T20:18:55.656Z,6.78
2018-11-29T20:21:31.361Z,6.83
2018-11-29T20:24:08.294Z,5.92
2018-11-29T20:26:45.055Z,8.28
2018-11-29T20:29:21.552Z,8.03
2018-11-29T20:31:57.445Z,6.90
2018-11-29T20:34:33.304Z,8.38
2018-11-29T20:37:09.980Z,7.20
2018-11-29T20:39:45.988Z,8.63
2018-11-29T20:42:21.750Z,5.40
2018-11-29T20:44:57.513Z,6.87
2018-11-29T20:47:33.492Z,9.03
2018-11-29T20:50:14.693Z,7.92
2018-11-29T20:52:48.911Z,6.30
2018-11-29T20:55:27.217Z,8.10
2018-11-29T20:58:02.882Z,7.35
2018-11-29T21:00:38.748Z,7.87
2018-11-29T21:03:16.795Z,6.72
2018-11-29T21:05:52.804Z,6.92
2018-11-29T21:08:29.200Z,9.80
2018-11-29T21:11:05.492Z,6.70
2018-11-29T21:13:41.043Z,6.33
2018-11-29T21:16:16.923Z,6.17
2018-11-29T21:18:52.642Z,7.20
2018-11-29T21:21:28.383Z,8.10
2018-11-29T21:24:10.834Z,6.30
2018-11-29T21:26:47.097Z,6.50
2018-11-29T21:29:23.092Z,6.50
2018-11-29T21:31:59.154Z,6.17
2018-11-29T21:34:35.072Z,7.60
2018-11-29T21:37:11.083Z,5.67
2018-11-29T21:39:47.044Z,6.92
2018-11-29T21:42:22.894Z,5.10
2018-11-29T21:44:58.838Z,8.25
2018-11-29T21:47:34.510Z,6.55
2018-11-29T21:50:10.310Z,5.72
2018-11-29T21:52:46.434Z,8.25
2018-11-29T21:55:22.155Z,7.03
2018-11-29T21:57:57.917Z,5.87
2018-11-29T22:00:34.105Z,5.90
2018-11-29T22:03:10.554Z,7.45
2018-11-29T22:05:46.320Z,6.03
2018-11-29T22:08:22.291Z,7.72
2018-11-29T22:10:57.926Z,6.40
2018-11-29T22:13:34.639Z,5.97
2018-11-29T22:16:11.835Z,6.72
2018-11-29T22:18:48.161Z,8.68
2018-11-29T22:21:23.728Z,7.08
2018-11-29T22:23:59.534Z,5.80
2018-11-29T22:26:35.371Z,7.33
2018-11-29T22:29:11.133Z,6.47
2018-11-29T22:31:46.786Z,7.65
2018-11-29T22:34:22.919Z,7.47
2018-11-29T22:36:58.603Z,7.35
2018-11-29T22:39:34.591Z,7.28
2018-11-29T22:42:10.475Z,9.00
2018-11-29T22:44:46.351Z,9.75
2018-11-29T22:47:22.102Z,7.85
2018-11-29T22:49:58.166Z,6.78
2018-11-29T22:52:33.832Z,8.40
2018-11-29T22:55:10.260Z,9.98
2018-11-29T22:57:46.415Z,7.45
2018-11-29T23:00:22.179Z,7.00
2018-11-29T23:02:58.115Z,6.58
2018-11-29T23:05:34.189Z,5.70
2018-11-29T23:08:13.023Z,6.03
2018-11-29T23:10:49.173Z,8.55
2018-11-29T23:13:24.986Z,8.88
2018-11-29T23:16:00.911Z,5.62
2018-11-29T23:18:36.234Z,7.05
2018-11-29T23:21:12.360Z,7.47
2018-11-29T23:23:48.872Z,7.45
2018-11-29T23:26:24.555Z,6.60
2018-11-29T23:29:01.870Z,7.85
2018-11-29T23:31:38.162Z,9.33
2018-11-29T23:34:14.033Z,5.58
2018-11-29T23:36:50.826Z,7.05
2018-11-29T23:39:27.683Z,9.28
2018-11-29T23:42:03.908Z,8.25
2018-11-29T23:44:39.556Z,8.98
2018-11-29T23:47:15.274Z,7.35
2018-11-29T23:49:51.223Z,6.30
2018-11-29T23:52:27.382Z,6.90
2018-11-29T23:55:04.591Z,6.97
2018-11-29T23:57:41.233Z,8.83
